createdAt,value
2017-12-15T00:00:25.172Z,6.02
2017-12-15T00:02:52.795Z,5.93
2017-12-15T00:05:20.503Z,5.92
2017-12-15T00:07:48.183Z,5.89
2017-12-15T00:10:15.860Z,5.84
2017-12-15T00:12:43.531Z,5.80
2017-12-15T00:15:11.208Z,5.78
2017-12-15T00:17:38.920Z,5.75
2017-12-15T00:20:06.659Z,5.67
2017-12-15T00:22:34.280Z,5.58
2017-12-15T00:25:01.916Z,5.50
2017-12-15T00:27:29.659Z,5.41
2017-12-15T00:29:57.281Z,5.34
2017-12-15T00:32:24.904Z,5.23
2017-12-15T00:34:52.563Z,5.15
2017-12-15T00:37:20.224Z,5.15
2017-12-15T00:39:47.895Z,5.10
2017-12-15T00:42:15.563Z,5.15
2017-12-15T00:44:43.171Z,5.22
2017-12-15T00:47:10.852Z,5.21
2017-12-15T00:49:38.544Z,5.19
2017-12-15T00:52:06.215Z,5.21
2017-12-15T00:54:33.840Z,5.34
2017-12-15T00:57:01.500Z,5.38
2017-12-15T00:59:29.123Z,5.45
2017-12-15T01:01:56.740Z,5.39
2017-12-15T01:04:24.407Z,5.49
2017-12-15T01:06:52.027Z,5.50
2017-12-15T01:09:19.651Z,5.45
2017-12-15T01:11:47.315Z,5.45
2017-12-15T01:14:14.991Z,5.57
2017-12-15T01:16:42.668Z,5.53
2017-12-15T01:19:10.393Z,5.50
2017-12-15T01:21:38.024Z,5.45
2017-12-15T01:24:05.693Z,5.41
2017-12-15T01:26:33.443Z,5.38
2017-12-15T01:29:01.116Z,5.32
2017-12-15T01:31:28.801Z,5.17
2017-12-15T01:33:56.483Z,5.07
2017-12-15T01:36:24.088Z,5.23
2017-12-15T01:38:51.759Z,5.29
2017-12-15T01:41:19.423Z,5.24
2017-12-15T01:43:47.057Z,5.26
2017-12-15T01:46:14.671Z,5.32
2017-12-15T01:48:42.331Z,5.37
2017-12-15T01:51:09.950Z,5.33
2017-12-15T01:53:37.568Z,5.32
2017-12-15T01:56:05.231Z,5.32
2017-12-15T01:58:32.849Z,5.30
2017-12-15T02:01:00.473Z,5.17
2017-12-15T02:03:28.141Z,5.01
2017-12-15T02:05:55.812Z,4.85
2017-12-15T02:08:23.473Z,4.84
2017-12-15T02:10:51.141Z,4.80
2017-12-15T02:13:18.763Z,4.79
2017-12-15T02:15:46.371Z,4.83
2017-12-15T02:18:14.093Z,4.86
2017-12-15T02:20:41.710Z,4.78
2017-12-15T02:23:09.324Z,4.81
2017-12-15T02:25:37.085Z,4.87
2017-12-15T02:28:04.695Z,4.85
2017-12-15T02:30:32.308Z,4.89
2017-12-15T02:32:59.982Z,5.09
2017-12-15T02:35:27.602Z,5.18
2017-12-15T02:37:55.220Z,5.12
2017-12-15T02:40:22.888Z,5.06
2017-12-15T02:42:50.499Z,4.99
2017-12-15T02:45:18.164Z,4.95
2017-12-15T02:47:45.819Z,4.91
2017-12-15T02:50:13.438Z,4.87
2017-12-15T02:52:41.054Z,4.81
2017-12-15T02:55:08.719Z,4.75
2017-12-15T02:57:36.336Z,4.70
2017-12-15T03:00:04.072Z,4.62
2017-12-15T03:02:31.797Z,4.55
2017-12-15T03:04:59.412Z,4.49
2017-12-15T03:07:27.027Z,4.28
2017-12-15T03:09:54.686Z,4.24
2017-12-15T03:12:22.298Z,4.24
2017-12-15T03:14:49.913Z,4.28
2017-12-15T03:17:17.576Z,4.23
2017-12-15T03:19:45.195Z,4.27
2017-12-15T03:22:12.806Z,4.24
2017-12-15T03:24:40.544Z,4.30
2017-12-15T03:27:08.165Z,4.33
2017-12-15T03:29:35.837Z,4.35
2017-12-15T03:32:03.510Z,4.38
2017-12-15T03:34:31.184Z,4.41
2017-12-15T03:36:58.787Z,4.37
2017-12-15T03:39:26.452Z,4.44
2017-12-15T03:41:54.128Z,4.47
2017-12-15T03:44:21.796Z,4.49
2017-12-15T03:46:49.452Z,4.54
2017-12-15T03:49:17.083Z,4.52
2017-12-15T03:51:44.695Z,4.48
2017-12-15T03:54:12.430Z,4.44
2017-12-15T03:56:40.160Z,4.30
2017-12-15T03:59:07.771Z,4.30
2017-12-15T04:01:35.500Z,4.29
2017-12-15T04:04:03.123Z,4.34
2017-12-15T04:06:30.792Z,4.36
2017-12-15T04:08:58.460Z,4.38
2017-12-15T04:11:26.075Z,4.38
2017-12-15T04:13:53.695Z,4.43
2017-12-15T04:16:21.356Z,4.41
2017-12-15T04:18:48.968Z,4.38
2017-12-15T04:21:16.597Z,4.33
2017-12-15T04:23:44.276Z,4.34
2017-12-15T04:26:11.928Z,4.37
2017-12-15T04:28:39.606Z,4.39
2017-12-15T04:31:07.329Z,4.40
2017-12-15T04:33:34.960Z,4.36
2017-12-15T04:36:02.588Z,4.39
2017-12-15T04:38:30.264Z,4.37
2017-12-15T04:40:57.941Z,4.38
2017-12-15T04:43:25.624Z,4.35
2017-12-15T04:45:53.288Z,4.41
2017-12-15T04:48:20.908Z,4.53
2017-12-15T04:50:48.531Z,4.61
2017-12-15T04:53:16.260Z,4.61
2017-12-15T04:55:43.879Z,4.60
2017-12-15T04:58:11.496Z,4.57
2017-12-15T05:00:39.258Z,4.61
2017-12-15T05:03:06.878Z,4.73
2017-12-15T05:05:34.490Z,4.80
2017-12-15T05:08:02.227Z,4.84
2017-12-15T05:10:29.856Z,4.88
2017-12-15T05:12:57.548Z,4.69
2017-12-15T05:15:25.223Z,4.50
2017-12-15T05:17:52.830Z,4.42
2017-12-15T05:20:20.521Z,4.34
2017-12-15T05:22:48.198Z,4.26
2017-12-15T05:25:15.834Z,4.20
2017-12-15T05:27:43.456Z,4.16
2017-12-15T05:30:11.120Z,4.15
2017-12-15T05:32:38.727Z,4.16
2017-12-15T05:35:06.358Z,4.23
2017-12-15T05:37:34.040Z,4.23
2017-12-15T05:40:01.667Z,4.30
2017-12-15T05:42:29.289Z,4.34
2017-12-15T05:44:57.019Z,4.36
2017-12-15T05:47:24.655Z,4.42
2017-12-15T05:49:52.278Z,4.43
2017-12-15T05:52:20.036Z,4.45
2017-12-15T05:54:47.639Z,4.46
2017-12-15T05:57:15.251Z,4.51
2017-12-15T05:59:42.987Z,4.56
2017-12-15T06:02:10.627Z,4.59
2017-12-15T06:04:38.324Z,4.64
2017-12-15T06:07:05.996Z,4.72
2017-12-15T06:09:33.672Z,4.89
2017-12-15T06:12:01.296Z,5.05
2017-12-15T06:14:28.989Z,5.11
2017-12-15T06:16:56.678Z,5.27
2017-12-15T06:19:24.349Z,5.36
2017-12-15T06:21:52.038Z,5.44
2017-12-15T06:24:19.655Z,5.52
2017-12-15T06:26:47.274Z,5.55
2017-12-15T06:29:14.951Z,5.57
2017-12-15T06:31:42.659Z,5.57
2017-12-15T06:34:10.348Z,5.60
2017-12-15T06:36:38.069Z,5.60
2017-12-15T06:39:05.748Z,5.62
2017-12-15T06:41:33.372Z,5.73
2017-12-15T06:44:01.112Z,5.85
2017-12-15T06:46:28.744Z,5.97
2017-12-15T06:48:56.354Z,5.98
2017-12-15T06:51:25.550Z,5.98
2017-12-15T06:53:53.198Z,6.10
2017-12-15T06:56:20.903Z,6.20
2017-12-15T06:58:48.579Z,6.31
2017-12-15T07:01:16.228Z,6.45
2017-12-15T07:03:43.859Z,6.61
2017-12-15T07:06:11.534Z,6.81
2017-12-15T07:08:39.156Z,6.95
2017-12-15T07:11:06.892Z,7.07
2017-12-15T07:13:34.680Z,7.09
2017-12-15T07:16:02.347Z,7.14
2017-12-15T07:18:30.080Z,7.17
2017-12-15T07:20:57.766Z,7.19
2017-12-15T07:23:25.412Z,7.28
2017-12-15T07:25:53.058Z,7.34
2017-12-15T07:28:20.718Z,7.47
2017-12-15T07:30:48.337Z,7.63
2017-12-15T07:33:16.009Z,7.75
2017-12-15T07:35:43.692Z,7.84
2017-12-15T07:38:11.440Z,7.87
2017-12-15T07:40:39.131Z,7.94
2017-12-15T07:43:06.856Z,7.95
2017-12-15T07:45:34.477Z,7.83
2017-12-15T07:48:02.752Z,7.69
2017-12-15T07:50:30.452Z,7.62
2017-12-15T07:52:58.157Z,7.53
2017-12-15T07:55:25.782Z,7.63
2017-12-15T07:57:53.458Z,7.75
2017-12-15T08:00:21.076Z,7.98
2017-12-15T08:02:48.751Z,8.20
2017-12-15T08:05:16.490Z,8.35
2017-12-15T08:07:44.376Z,8.53
2017-12-15T08:10:12.004Z,8.72
2017-12-15T08:12:40.506Z,8.84
2017-12-15T08:15:09.208Z,8.89
2017-12-15T08:17:36.845Z,8.94
2017-12-15T08:20:04.959Z,9.02
2017-12-15T08:22:32.784Z,9.04
2017-12-15T08:25:00.404Z,8.96
2017-12-15T08:27:28.163Z,9.08
2017-12-15T08:29:55.869Z,9.27
2017-12-15T08:32:23.635Z,9.45
2017-12-15T08:34:51.307Z,9.58
2017-12-15T08:37:18.924Z,9.82
2017-12-15T08:39:46.552Z,10.12
2017-12-15T08:42:15.111Z,10.36
2017-12-15T08:44:43.664Z,10.73
2017-12-15T08:47:11.344Z,11.01
2017-12-15T08:49:39.135Z,11.30
2017-12-15T08:52:06.755Z,11.59
2017-12-15T08:54:34.399Z,11.83
2017-12-15T08:57:02.234Z,12.12
2017-12-15T08:59:29.955Z,12.37
2017-12-15T09:01:57.582Z,12.60
2017-12-15T09:04:25.317Z,12.64
2017-12-15T09:06:52.992Z,12.84
2017-12-15T09:09:20.627Z,12.84
2017-12-15T09:11:48.309Z,12.67
2017-12-15T09:14:15.930Z,12.64
2017-12-15T09:16:43.705Z,12.64
2017-12-15T09:19:12.327Z,12.85
2017-12-15T09:21:40.026Z,13.23
2017-12-15T09:24:07.717Z,13.36
2017-12-15T09:26:35.401Z,13.65
2017-12-15T09:29:03.036Z,14.13
2017-12-15T09:31:30.668Z,14.19
2017-12-15T09:33:58.401Z,14.18
2017-12-15T09:36:26.060Z,14.24
2017-12-15T09:38:53.711Z,14.44
2017-12-15T09:41:22.211Z,14.42
2017-12-15T09:43:49.928Z,14.29
2017-12-15T09:46:17.806Z,14.38
2017-12-15T09:48:45.545Z,14.54
2017-12-15T09:51:13.187Z,14.89
2017-12-15T09:53:51.180Z,15.85
2017-12-15T09:56:18.883Z,16.27
2017-12-15T09:58:47.491Z,16.38
2017-12-15T10:01:25.131Z,15.87
2017-12-15T10:04:00.547Z,15.83
2017-12-15T10:06:31.608Z,15.96
2017-12-15T10:09:02.178Z,15.72
2017-12-15T10:11:37.459Z,16.17
2017-12-15T10:14:07.261Z,16.52
2017-12-15T10:16:35.846Z,16.60
2017-12-15T10:19:07.428Z,16.56
2017-12-15T10:21:35.111Z,16.55
2017-12-15T10:24:12.374Z,16.77
2017-12-15T10:26:40.271Z,17.01
2017-12-15T10:29:26.375Z,16.96
2017-12-15T10:31:55.154Z,17.21
2017-12-15T10:34:22.835Z,17.11
2017-12-15T10:36:51.491Z,17.33
2017-12-15T10:39:19.633Z,17.05
2017-12-15T10:41:48.251Z,17.32
2017-12-15T10:44:16.001Z,17.57
2017-12-15T10:46:43.627Z,18.07
2017-12-15T10:49:11.396Z,17.67
2017-12-15T10:51:49.215Z,17.54
2017-12-15T10:54:16.859Z,17.59
2017-12-15T10:56:44.530Z,17.73
2017-12-15T10:59:16.405Z,17.70
2017-12-15T11:01:44.036Z,17.99
2017-12-15T11:04:11.715Z,18.37
2017-12-15T11:06:39.440Z,19.38
2017-12-15T11:09:07.947Z,20.21
2017-12-15T11:11:35.884Z,20.95
2017-12-15T11:14:06.592Z,21.79
2017-12-15T11:16:34.987Z,22.69
2017-12-15T11:19:02.663Z,23.41
2017-12-15T11:21:32.063Z,23.00
2017-12-15T11:23:59.749Z,23.44
2017-12-15T11:26:27.618Z,23.40
2017-12-15T11:28:56.007Z,23.24
2017-12-15T11:31:46.283Z,23.54
2017-12-15T11:34:14.866Z,23.07
2017-12-15T11:36:42.583Z,22.65
2017-12-15T11:39:10.378Z,23.18
2017-12-15T11:41:40.940Z,23.03
2017-12-15T11:44:18.950Z,22.03
2017-12-15T11:46:53.652Z,21.33
2017-12-15T11:49:28.411Z,20.35
2017-12-15T11:51:56.946Z,19.23
2017-12-15T11:54:28.143Z,18.38
2017-12-15T11:57:03.661Z,17.78
2017-12-15T11:59:42.840Z,17.23
2017-12-15T12:02:23.564Z,16.96
2017-12-15T12:04:51.226Z,16.68
2017-12-15T12:07:33.788Z,16.59
2017-12-15T12:10:02.331Z,16.38
2017-12-15T12:12:31.164Z,16.24
2017-12-15T12:14:59.734Z,16.20
2017-12-15T12:17:28.070Z,16.10
2017-12-15T12:19:55.862Z,16.05
2017-12-15T12:22:31.083Z,15.93
2017-12-15T12:25:06.522Z,15.90
2017-12-15T12:27:35.874Z,15.85
2017-12-15T12:30:10.603Z,15.78
2017-12-15T12:32:48.471Z,15.72
2017-12-15T12:35:28.035Z,15.70
2017-12-15T12:37:57.596Z,15.61
2017-12-15T12:40:26.494Z,15.55
2017-12-15T12:43:04.501Z,15.56
2017-12-15T12:45:35.287Z,15.57
2017-12-15T12:48:02.919Z,15.58
2017-12-15T12:50:45.450Z,15.51
2017-12-15T12:53:23.234Z,15.58
2017-12-15T12:55:53.835Z,15.44
2017-12-15T12:58:24.255Z,15.33
2017-12-15T13:00:58.826Z,15.33
2017-12-15T13:03:27.276Z,15.25
2017-12-15T13:05:56.163Z,15.29
2017-12-15T13:08:24.900Z,15.36
2017-12-15T13:10:59.607Z,15.43
2017-12-15T13:13:30.991Z,15.52
2017-12-15T13:15:59.259Z,15.58
2017-12-15T13:18:27.883Z,15.67
2017-12-15T13:20:55.557Z,15.64
2017-12-15T13:23:23.225Z,15.67
2017-12-15T13:25:51.667Z,15.59
2017-12-15T13:28:19.466Z,15.47
2017-12-15T13:30:47.874Z,15.43
2017-12-15T13:33:16.266Z,15.44
2017-12-15T13:35:44.742Z,15.41
2017-12-15T13:38:12.438Z,15.41
2017-12-15T13:40:40.087Z,15.40
2017-12-15T13:43:07.827Z,15.38
2017-12-15T13:45:36.251Z,15.39
2017-12-15T13:48:03.987Z,15.32
2017-12-15T13:50:31.767Z,15.30
2017-12-15T13:53:06.386Z,15.26
2017-12-15T13:55:34.083Z,15.16
2017-12-15T13:58:01.852Z,15.13
2017-12-15T14:00:29.598Z,15.04
2017-12-15T14:02:57.423Z,15.01
2017-12-15T14:05:27.932Z,14.94
2017-12-15T14:07:55.590Z,14.84
2017-12-15T14:10:23.276Z,14.74
2017-12-15T14:12:51.015Z,14.72
2017-12-15T14:15:18.870Z,14.75
2017-12-15T14:17:46.739Z,14.72
2017-12-15T14:20:15.235Z,14.64
2017-12-15T14:22:42.936Z,14.56
2017-12-15T14:25:10.696Z,14.53
2017-12-15T14:27:38.339Z,14.57
2017-12-15T14:30:06.003Z,14.53
2017-12-15T14:32:33.763Z,14.41
2017-12-15T14:35:01.751Z,14.35
2017-12-15T14:37:30.283Z,14.25
2017-12-15T14:39:58.278Z,14.12
2017-12-15T14:42:26.106Z,14.04
2017-12-15T14:45:04.004Z,13.89
2017-12-15T14:47:34.318Z,13.68
2017-12-15T14:50:02.151Z,13.65
2017-12-15T14:52:36.977Z,13.70
2017-12-15T14:55:05.770Z,13.73
2017-12-15T14:57:33.631Z,13.73
2017-12-15T15:00:18.363Z,13.84
2017-12-15T15:02:52.911Z,13.90
2017-12-15T15:05:20.882Z,13.77
2017-12-15T15:07:48.495Z,13.75
2017-12-15T15:10:26.563Z,13.71
2017-12-15T15:12:54.184Z,13.77
2017-12-15T15:15:28.791Z,13.79
2017-12-15T15:18:07.687Z,13.93
2017-12-15T15:20:35.470Z,13.98
2017-12-15T15:23:03.112Z,14.09
2017-12-15T15:25:30.841Z,14.12
2017-12-15T15:27:58.596Z,14.13
2017-12-15T15:30:26.304Z,14.09
2017-12-15T15:32:53.935Z,14.02
2017-12-15T15:35:21.771Z,13.97
2017-12-15T15:37:50.518Z,13.80
2017-12-15T15:40:18.225Z,13.70
2017-12-15T15:42:55.823Z,13.58
2017-12-15T15:45:23.775Z,13.52
2017-12-15T15:47:52.223Z,13.40
2017-12-15T15:50:20.320Z,13.20
2017-12-15T15:52:47.976Z,13.20
2017-12-15T15:55:15.615Z,13.28
2017-12-15T15:57:43.619Z,13.34
2017-12-15T16:00:14.122Z,13.54
2017-12-15T16:02:41.840Z,13.58
2017-12-15T16:05:09.594Z,13.62
2017-12-15T16:07:38.164Z,13.70
2017-12-15T16:10:05.830Z,13.80
2017-12-15T16:12:33.502Z,13.80
2017-12-15T16:15:01.361Z,13.91
2017-12-15T16:17:29.106Z,14.01
2017-12-15T16:19:56.802Z,14.06
2017-12-15T16:22:24.549Z,14.13
2017-12-15T16:24:52.177Z,14.13
2017-12-15T16:27:20.674Z,14.15
2017-12-15T16:29:48.322Z,14.19
2017-12-15T16:32:15.975Z,14.21
2017-12-15T16:34:44.655Z,14.19
2017-12-15T16:37:12.459Z,14.21
2017-12-15T16:39:40.230Z,14.25
2017-12-15T16:42:08.003Z,14.22
2017-12-15T16:44:35.687Z,14.26
2017-12-15T16:47:03.448Z,14.30
2017-12-15T16:49:31.298Z,14.30
2017-12-15T16:51:58.988Z,14.33
2017-12-15T16:54:27.489Z,14.27
2017-12-15T16:56:55.357Z,14.24
2017-12-15T16:59:23.037Z,14.16
2017-12-15T17:01:50.903Z,14.02
2017-12-15T17:04:18.798Z,14.01
2017-12-15T17:06:46.500Z,13.99
2017-12-15T17:09:14.331Z,13.87
2017-12-15T17:11:42.824Z,13.78
2017-12-15T17:14:11.272Z,13.72
2017-12-15T17:16:39.170Z,13.64
2017-12-15T17:19:07.759Z,13.53
2017-12-15T17:21:35.411Z,13.43
2017-12-15T17:24:04.148Z,13.30
2017-12-15T17:26:31.955Z,13.29
2017-12-15T17:28:59.810Z,13.22
2017-12-15T17:31:27.511Z,13.14
2017-12-15T17:33:55.291Z,13.13
2017-12-15T17:36:22.964Z,13.03
2017-12-15T17:38:50.679Z,13.06
2017-12-15T17:41:18.424Z,13.06
2017-12-15T17:43:46.151Z,13.05
2017-12-15T17:46:13.819Z,13.08
2017-12-15T17:48:41.512Z,13.00
2017-12-15T17:51:09.202Z,12.91
2017-12-15T17:53:36.871Z,12.77
2017-12-15T17:56:04.648Z,12.68
2017-12-15T17:58:32.919Z,12.59
2017-12-15T18:01:00.550Z,12.52
2017-12-15T18:03:28.275Z,12.40
2017-12-15T18:05:55.956Z,12.36
2017-12-15T18:08:23.636Z,12.33
2017-12-15T18:10:51.346Z,12.39
2017-12-15T18:13:19.404Z,12.32
2017-12-15T18:15:47.026Z,12.29
2017-12-15T18:18:14.791Z,12.38
2017-12-15T18:20:42.423Z,12.38
2017-12-15T18:23:10.159Z,12.40
2017-12-15T18:25:37.839Z,12.45
2017-12-15T18:28:05.539Z,12.42
2017-12-15T18:30:33.283Z,12.38
2017-12-15T18:33:01.043Z,12.41
2017-12-15T18:35:28.733Z,12.45
2017-12-15T18:37:56.462Z,12.29
2017-12-15T18:40:24.283Z,12.25
2017-12-15T18:42:51.963Z,12.23
2017-12-15T18:45:19.582Z,12.19
2017-12-15T18:47:47.336Z,12.27
2017-12-15T18:50:15.062Z,12.30
2017-12-15T18:52:42.739Z,12.39
2017-12-15T18:55:10.504Z,12.39
2017-12-15T18:57:38.310Z,12.33
2017-12-15T19:00:06.136Z,12.34
2017-12-15T19:02:33.875Z,12.37
2017-12-15T19:05:01.675Z,12.44
2017-12-15T19:07:29.435Z,12.53
2017-12-15T19:09:57.119Z,12.60
2017-12-15T19:12:24.869Z,12.58
2017-12-15T19:14:53.276Z,12.59
2017-12-15T19:17:21.103Z,12.64
2017-12-15T19:19:48.833Z,12.77
2017-12-15T19:22:17.459Z,12.81
2017-12-15T19:24:45.238Z,12.87
2017-12-15T19:27:12.939Z,12.86
2017-12-15T19:29:40.614Z,12.93
2017-12-15T19:32:08.298Z,12.99
2017-12-15T19:34:36.066Z,12.97
2017-12-15T19:37:04.580Z,12.95
2017-12-15T19:39:32.255Z,12.96
2017-12-15T19:41:59.998Z,12.94
2017-12-15T19:44:29.512Z,13.00
2017-12-15T19:46:57.302Z,13.07
2017-12-15T19:49:24.964Z,13.04
2017-12-15T19:51:52.691Z,13.12
2017-12-15T19:54:20.359Z,13.08
2017-12-15T19:56:47.972Z,13.24
2017-12-15T19:59:15.614Z,13.23
2017-12-15T20:01:43.315Z,13.19
2017-12-15T20:04:11.192Z,13.23
2017-12-15T20:06:39.667Z,13.23
2017-12-15T20:09:08.251Z,13.27
2017-12-15T20:11:35.935Z,13.35
2017-12-15T20:14:04.278Z,13.41
2017-12-15T20:16:32.899Z,13.37
2017-12-15T20:19:01.039Z,13.32
2017-12-15T20:21:28.966Z,13.30
2017-12-15T20:23:56.886Z,13.29
2017-12-15T20:26:24.551Z,13.32
2017-12-15T20:28:53.379Z,13.37
2017-12-15T20:31:21.914Z,13.36
2017-12-15T20:33:49.530Z,13.28
2017-12-15T20:36:17.143Z,13.21
2017-12-15T20:38:47.791Z,13.09
2017-12-15T20:41:15.596Z,13.02
2017-12-15T20:43:44.232Z,12.91
2017-12-15T20:46:12.039Z,12.78
2017-12-15T20:48:39.683Z,12.75
2017-12-15T20:51:17.639Z,12.65
2017-12-15T20:53:52.351Z,12.62
2017-12-15T20:56:23.022Z,12.58
2017-12-15T20:58:51.015Z,12.50
2017-12-15T21:01:19.659Z,12.37
2017-12-15T21:03:47.551Z,12.30
2017-12-15T21:06:15.399Z,12.26
2017-12-15T21:08:43.168Z,12.22
2017-12-15T21:11:17.823Z,12.15
2017-12-15T21:13:46.607Z,12.17
2017-12-15T21:16:18.128Z,12.23
2017-12-15T21:18:45.862Z,12.23
2017-12-15T21:21:14.172Z,12.24
2017-12-15T21:23:45.767Z,12.12
2017-12-15T21:26:14.384Z,12.12
2017-12-15T21:28:44.845Z,12.10
2017-12-15T21:31:15.539Z,12.04
2017-12-15T21:33:43.247Z,11.98
2017-12-15T21:36:10.924Z,12.00
2017-12-15T21:38:41.591Z,12.01
2017-12-15T21:41:09.212Z,11.95
2017-12-15T21:43:36.831Z,11.97
2017-12-15T21:46:14.423Z,11.94
2017-12-15T21:48:44.879Z,11.91
2017-12-15T21:51:13.475Z,11.83
2017-12-15T21:53:42.947Z,11.74
2017-12-15T21:56:13.526Z,11.66
2017-12-15T21:58:41.203Z,11.58
2017-12-15T22:01:08.893Z,11.54
2017-12-15T22:03:36.528Z,11.53
2017-12-15T22:06:04.929Z,11.77
2017-12-15T22:08:32.595Z,11.65
2017-12-15T22:11:01.024Z,11.54
2017-12-15T22:13:31.759Z,11.37
2017-12-15T22:15:59.427Z,11.24
2017-12-15T22:18:27.158Z,11.22
2017-12-15T22:20:55.531Z,11.35
2017-12-15T22:23:23.215Z,11.50
2017-12-15T22:25:50.838Z,11.37
2017-12-15T22:28:18.444Z,11.41
2017-12-15T22:30:46.178Z,11.51
2017-12-15T22:33:14.487Z,11.52
2017-12-15T22:35:42.650Z,11.54
2017-12-15T22:38:11.414Z,11.48
2017-12-15T22:40:42.140Z,11.33
2017-12-15T22:43:16.676Z,11.26
2017-12-15T22:45:44.363Z,11.16
2017-12-15T22:48:12.051Z,11.01
2017-12-15T22:50:40.026Z,10.98
2017-12-15T22:53:08.069Z,11.00
2017-12-15T22:55:35.679Z,11.15
2017-12-15T22:58:03.419Z,11.09
2017-12-15T23:00:32.018Z,11.09
2017-12-15T23:02:59.819Z,11.08
2017-12-15T23:05:30.438Z,11.08
2017-12-15T23:07:58.099Z,11.04
2017-12-15T23:10:26.804Z,11.06
2017-12-15T23:12:55.397Z,11.30
2017-12-15T23:15:23.307Z,11.40
2017-12-15T23:17:51.043Z,11.67
2017-12-15T23:20:18.786Z,11.94
2017-12-15T23:22:47.359Z,12.16
2017-12-15T23:25:17.705Z,12.34
2017-12-15T23:27:46.335Z,12.70
2017-12-15T23:30:16.871Z,12.91
2017-12-15T23:32:45.823Z,12.92
2017-12-15T23:35:14.467Z,12.99
2017-12-15T23:37:54.047Z,12.99
2017-12-15T23:40:25.295Z,13.01
2017-12-15T23:42:55.663Z,13.10
2017-12-15T23:45:30.319Z,13.17
2017-12-15T23:48:11.058Z,13.16
2017-12-15T23:50:42.927Z,13.22
2017-12-15T23:53:11.535Z,13.18
2017-12-15T23:55:51.119Z,13.09
2017-12-15T23:58:18.831Z,13.19
